BAF555 EDDH-EBBR
Flight info
| Callsign | BAF555 |
|---|---|
| Flight time | 1h 1m |
| Altitude | 36000 |
| Route | WSN5C/05 WSN N125 SILQI N872 LILSI/N0458F350 Z310 WOODY WOODY9A |
| Aircraft | A400/H-SDE3FGHIRWY/L4T |
Departure
| Time | 2026-05-07 12:19 |
|---|---|
| Airport | Hamburg Helmut Schmidt Airport (EDDH) |
Arrival
| Time | 2026-05-07 13:20 |
|---|---|
| Airport | Brussels Airport (EBBR) |
| Time | Latitude | Longitude | Altitude | Speed | Heading |
|---|---|---|---|---|---|
| 2026-05-07 12:11 | 53.62050 | 9.97752 | 50 ft | 0 kts | 268° |
| 2026-05-07 12:11 | 53.62050 | 9.97751 | 50 ft | 0 kts | 268° |
| 2026-05-07 12:12 | 53.62051 | 9.97773 | 50 ft | 2 kts | 268° |
| 2026-05-07 12:12 | 53.62052 | 9.97796 | 50 ft | 2 kts | 270° |
| 2026-05-07 12:12 | 53.62048 | 9.97820 | 50 ft | 2 kts | 326° |
| 2026-05-07 12:13 | 53.62042 | 9.97828 | 50 ft | 0 kts | 358° |
| 2026-05-07 12:13 | 53.62043 | 9.97828 | 50 ft | 1 kts | 358° |
| 2026-05-07 12:14 | 53.62059 | 9.97828 | 50 ft | 4 kts | 358° |
| 2026-05-07 12:14 | 53.62086 | 9.97841 | 50 ft | 5 kts | 19° |
| 2026-05-07 12:14 | 53.62121 | 9.97840 | 50 ft | 6 kts | 342° |
| 2026-05-07 12:14 | 53.62164 | 9.97787 | 50 ft | 9 kts | 321° |
| 2026-05-07 12:15 | 53.62216 | 9.97695 | 50 ft | 12 kts | 288° |
| 2026-05-07 12:15 | 53.62171 | 9.97564 | 50 ft | 15 kts | 229° |
| 2026-05-07 12:15 | 53.62093 | 9.97408 | 49 ft | 20 kts | 230° |
| 2026-05-07 12:15 | 53.61998 | 9.97216 | 49 ft | 23 kts | 232° |
| 2026-05-07 12:16 | 53.61895 | 9.97002 | 48 ft | 24 kts | 229° |
| 2026-05-07 12:16 | 53.61789 | 9.96794 | 48 ft | 22 kts | 229° |
| 2026-05-07 12:16 | 53.61711 | 9.96639 | 47 ft | 17 kts | 230° |
| 2026-05-07 12:16 | 53.61678 | 9.96461 | 45 ft | 17 kts | 298° |
| 2026-05-07 12:17 | 53.61720 | 9.96419 | 48 ft | 0 kts | 353° |
| 2026-05-07 12:17 | 53.61727 | 9.96419 | 48 ft | 5 kts | 359° |
| 2026-05-07 12:18 | 53.61790 | 9.96425 | 49 ft | 10 kts | 4° |
| 2026-05-07 12:18 | 53.61853 | 9.96452 | 49 ft | 9 kts | 28° |
| 2026-05-07 12:18 | 53.61908 | 9.96541 | 49 ft | 16 kts | 50° |
| 2026-05-07 12:18 | 53.62166 | 9.97063 | 51 ft | 109 kts | 50° |
| 2026-05-07 12:19 | 53.62812 | 9.98374 | 313 ft | 166 kts | 50° |
| 2026-05-07 12:19 | 53.63598 | 9.99967 | 906 ft | 186 kts | 51° |
| 2026-05-07 12:19 | 53.64441 | 10.01727 | 1547 ft | 207 kts | 52° |
| 2026-05-07 12:19 | 53.65389 | 10.03649 | 2543 ft | 217 kts | 50° |
| 2026-05-07 12:20 | 53.66374 | 10.05635 | 3703 ft | 225 kts | 51° |
| 2026-05-07 12:20 | 53.67422 | 10.07750 | 4538 ft | 248 kts | 50° |
| 2026-05-07 12:20 | 53.68852 | 10.09682 | 4938 ft | 283 kts | 27° |
| 2026-05-07 12:20 | 53.70904 | 10.10256 | 5083 ft | 319 kts | 358° |
| 2026-05-07 12:21 | 53.73104 | 10.09043 | 5013 ft | 348 kts | 332° |
| 2026-05-07 12:21 | 53.74828 | 10.06278 | 4988 ft | 344 kts | 306° |
| 2026-05-07 12:21 | 53.75674 | 10.02680 | 4980 ft | 318 kts | 284° |
| 2026-05-07 12:21 | 53.75741 | 9.99119 | 4982 ft | 292 kts | 262° |
| 2026-05-07 12:22 | 53.75279 | 9.95921 | 4986 ft | 270 kts | 249° |
| 2026-05-07 12:22 | 53.74539 | 9.93114 | 4993 ft | 255 kts | 242° |
| 2026-05-07 12:22 | 53.73754 | 9.90479 | 4987 ft | 249 kts | 242° |
| 2026-05-07 12:22 | 53.72999 | 9.87854 | 4989 ft | 248 kts | 243° |
| 2026-05-07 12:23 | 53.72275 | 9.85212 | 4989 ft | 248 kts | 245° |
| 2026-05-07 12:23 | 53.71569 | 9.82553 | 4993 ft | 248 kts | 245° |
| 2026-05-07 12:23 | 53.70874 | 9.79886 | 4995 ft | 248 kts | 245° |
| 2026-05-07 12:23 | 53.70187 | 9.77221 | 4989 ft | 248 kts | 245° |
| 2026-05-07 12:24 | 53.69510 | 9.74578 | 4990 ft | 248 kts | 245° |
| 2026-05-07 12:24 | 53.68828 | 9.71905 | 4993 ft | 248 kts | 246° |
| 2026-05-07 12:24 | 53.68147 | 9.69237 | 5016 ft | 249 kts | 245° |
| 2026-05-07 12:24 | 53.67445 | 9.66496 | 5538 ft | 261 kts | 246° |
| 2026-05-07 12:25 | 53.66700 | 9.63593 | 6516 ft | 278 kts | 246° |
| 2026-05-07 12:25 | 53.65919 | 9.60539 | 7505 ft | 288 kts | 246° |
| 2026-05-07 12:25 | 53.65007 | 9.57515 | 8650 ft | 290 kts | 238° |
| 2026-05-07 12:25 | 53.63875 | 9.54671 | 9869 ft | 292 kts | 234° |
| 2026-05-07 12:26 | 53.62693 | 9.51900 | 10992 ft | 292 kts | 234° |
| 2026-05-07 12:26 | 53.61489 | 9.49110 | 12010 ft | 297 kts | 234° |
| 2026-05-07 12:26 | 53.60280 | 9.46310 | 13021 ft | 303 kts | 234° |
| 2026-05-07 12:26 | 53.59035 | 9.43423 | 14055 ft | 307 kts | 234° |
| 2026-05-07 12:27 | 53.57776 | 9.40501 | 15032 ft | 310 kts | 234° |
| 2026-05-07 12:27 | 53.56505 | 9.37554 | 16030 ft | 312 kts | 234° |
| 2026-05-07 12:27 | 53.55222 | 9.34579 | 17062 ft | 315 kts | 234° |
| 2026-05-07 12:27 | 53.53929 | 9.31583 | 18089 ft | 317 kts | 235° |
| 2026-05-07 12:28 | 53.52625 | 9.28565 | 18989 ft | 322 kts | 234° |
| 2026-05-07 12:28 | 53.51297 | 9.25495 | 19841 ft | 327 kts | 234° |
| 2026-05-07 12:28 | 53.49947 | 9.22378 | 20695 ft | 332 kts | 234° |
| 2026-05-07 12:28 | 53.48585 | 9.19238 | 21631 ft | 334 kts | 234° |
| 2026-05-07 12:29 | 53.47210 | 9.16073 | 22566 ft | 337 kts | 234° |
| 2026-05-07 12:29 | 53.45832 | 9.12904 | 23420 ft | 342 kts | 234° |
| 2026-05-07 12:29 | 53.44419 | 9.09657 | 24148 ft | 347 kts | 234° |
| 2026-05-07 12:29 | 53.42982 | 9.06362 | 24848 ft | 351 kts | 234° |
| 2026-05-07 12:30 | 53.41534 | 9.03044 | 25533 ft | 354 kts | 234° |
| 2026-05-07 12:30 | 53.40067 | 8.99687 | 26168 ft | 359 kts | 234° |
| 2026-05-07 12:30 | 53.38581 | 8.96290 | 26730 ft | 364 kts | 234° |
| 2026-05-07 12:30 | 53.37072 | 8.92847 | 27360 ft | 368 kts | 234° |
| 2026-05-07 12:31 | 53.35555 | 8.89388 | 28034 ft | 369 kts | 234° |
| 2026-05-07 12:31 | 53.34068 | 8.85837 | 28608 ft | 374 kts | 236° |
| 2026-05-07 12:31 | 53.32616 | 8.82186 | 29093 ft | 380 kts | 237° |
| 2026-05-07 12:31 | 53.31156 | 8.78481 | 29624 ft | 383 kts | 237° |
| 2026-05-07 12:32 | 53.29685 | 8.74749 | 30160 ft | 385 kts | 237° |
| 2026-05-07 12:32 | 53.28218 | 8.71036 | 30586 ft | 388 kts | 237° |
| 2026-05-07 12:32 | 53.26727 | 8.67270 | 31083 ft | 387 kts | 237° |
| 2026-05-07 12:32 | 53.25239 | 8.63523 | 31668 ft | 385 kts | 237° |
| 2026-05-07 12:33 | 53.22284 | 8.56094 | 32759 ft | 385 kts | 237° |
| 2026-05-07 12:33 | 53.20800 | 8.52373 | 33291 ft | 384 kts | 237° |
| 2026-05-07 12:33 | 53.19318 | 8.48664 | 33901 ft | 382 kts | 237° |
| 2026-05-07 12:34 | 53.17844 | 8.44978 | 34374 ft | 382 kts | 237° |
| 2026-05-07 12:34 | 53.16386 | 8.41339 | 34733 ft | 383 kts | 237° |
| 2026-05-07 12:34 | 53.14908 | 8.37655 | 35192 ft | 382 kts | 237° |
| 2026-05-07 12:34 | 53.13434 | 8.33985 | 35670 ft | 379 kts | 237° |
| 2026-05-07 12:35 | 53.11966 | 8.30337 | 35944 ft | 381 kts | 236° |
| 2026-05-07 12:35 | 53.10482 | 8.26653 | 35989 ft | 385 kts | 236° |
| 2026-05-07 12:35 | 53.07501 | 8.19273 | 35983 ft | 383 kts | 236° |
| 2026-05-07 12:36 | 53.04521 | 8.11914 | 35981 ft | 383 kts | 236° |
| 2026-05-07 12:36 | 53.01544 | 8.04583 | 35990 ft | 382 kts | 236° |
| 2026-05-07 12:37 | 52.98581 | 7.97311 | 35991 ft | 383 kts | 236° |
| 2026-05-07 12:37 | 52.95593 | 7.89996 | 35979 ft | 383 kts | 236° |
| 2026-05-07 12:38 | 52.92594 | 7.82676 | 35974 ft | 384 kts | 236° |
| 2026-05-07 12:38 | 52.89590 | 7.75364 | 35973 ft | 383 kts | 236° |
| 2026-05-07 12:39 | 52.86580 | 7.68061 | 35972 ft | 383 kts | 236° |
| 2026-05-07 12:39 | 52.83589 | 7.60822 | 35972 ft | 384 kts | 236° |
| 2026-05-07 12:40 | 52.80574 | 7.53546 | 35960 ft | 383 kts | 236° |
| 2026-05-07 12:40 | 52.77557 | 7.46288 | 35969 ft | 383 kts | 236° |
| 2026-05-07 12:41 | 52.74533 | 7.39033 | 35957 ft | 383 kts | 236° |
| 2026-05-07 12:41 | 52.71510 | 7.31801 | 35962 ft | 383 kts | 236° |
| 2026-05-07 12:42 | 52.68499 | 7.24616 | 35966 ft | 383 kts | 236° |
| 2026-05-07 12:42 | 52.65459 | 7.17384 | 35969 ft | 383 kts | 236° |
| 2026-05-07 12:43 | 52.62421 | 7.10178 | 35962 ft | 383 kts | 235° |
| 2026-05-07 12:43 | 52.59393 | 7.03014 | 35964 ft | 383 kts | 235° |
| 2026-05-07 12:44 | 52.56346 | 6.95828 | 35963 ft | 383 kts | 235° |
| 2026-05-07 12:44 | 52.53294 | 6.88650 | 35957 ft | 382 kts | 235° |
| 2026-05-07 12:45 | 52.50765 | 6.82716 | 35960 ft | 382 kts | 235° |
| 2026-05-07 12:45 | 52.47709 | 6.75565 | 35961 ft | 382 kts | 235° |
| 2026-05-07 12:46 | 52.44157 | 6.67276 | 35960 ft | 382 kts | 235° |
| 2026-05-07 12:46 | 52.41596 | 6.61317 | 35959 ft | 382 kts | 235° |
| 2026-05-07 12:47 | 52.38550 | 6.54249 | 35969 ft | 382 kts | 235° |
| 2026-05-07 12:47 | 52.35482 | 6.47150 | 35967 ft | 382 kts | 235° |
| 2026-05-07 12:48 | 52.32411 | 6.40061 | 35968 ft | 382 kts | 234° |
| 2026-05-07 12:48 | 52.29336 | 6.32983 | 35970 ft | 381 kts | 234° |
| 2026-05-07 12:49 | 52.26261 | 6.25927 | 35969 ft | 381 kts | 234° |
| 2026-05-07 12:49 | 52.23182 | 6.18880 | 35973 ft | 381 kts | 234° |
| 2026-05-07 12:50 | 52.20100 | 6.11844 | 35966 ft | 381 kts | 234° |
| 2026-05-07 12:50 | 52.17012 | 6.04816 | 35969 ft | 381 kts | 234° |
| 2026-05-07 12:51 | 52.13919 | 5.97793 | 35965 ft | 381 kts | 234° |
| 2026-05-07 12:51 | 52.10822 | 5.90784 | 35965 ft | 381 kts | 234° |
| 2026-05-07 12:52 | 52.07749 | 5.83844 | 35961 ft | 380 kts | 234° |
| 2026-05-07 12:52 | 52.04656 | 5.76881 | 35963 ft | 380 kts | 234° |
| 2026-05-07 12:53 | 52.01558 | 5.69923 | 35971 ft | 380 kts | 234° |
| 2026-05-07 12:53 | 51.98455 | 5.62974 | 35965 ft | 380 kts | 234° |
| 2026-05-07 12:54 | 51.95348 | 5.56036 | 35969 ft | 380 kts | 234° |
| 2026-05-07 12:54 | 51.92237 | 5.49106 | 35964 ft | 380 kts | 234° |
| 2026-05-07 12:55 | 51.89144 | 5.42235 | 35972 ft | 380 kts | 234° |
| 2026-05-07 12:55 | 51.86028 | 5.35331 | 35979 ft | 379 kts | 234° |
| 2026-05-07 12:56 | 51.82911 | 5.28445 | 35977 ft | 379 kts | 234° |
| 2026-05-07 12:56 | 51.79793 | 5.21574 | 35986 ft | 379 kts | 234° |
| 2026-05-07 12:57 | 51.76678 | 5.14727 | 35971 ft | 371 kts | 234° |
| 2026-05-07 12:57 | 51.75183 | 5.11449 | 35971 ft | 354 kts | 234° |
| 2026-05-07 12:57 | 51.73760 | 5.08330 | 35971 ft | 337 kts | 234° |
| 2026-05-07 12:58 | 51.72396 | 5.05346 | 35972 ft | 322 kts | 234° |
| 2026-05-07 12:58 | 51.71084 | 5.02479 | 35989 ft | 316 kts | 234° |
| 2026-05-07 12:58 | 51.68499 | 4.96838 | 35988 ft | 311 kts | 234° |
| 2026-05-07 12:59 | 51.65931 | 4.91246 | 35992 ft | 308 kts | 234° |
| 2026-05-07 12:59 | 51.64680 | 4.88525 | 35801 ft | 306 kts | 234° |
| 2026-05-07 12:59 | 51.63409 | 4.85765 | 35400 ft | 309 kts | 234° |
| 2026-05-07 13:00 | 51.62131 | 4.82992 | 34897 ft | 308 kts | 234° |
| 2026-05-07 13:00 | 51.60854 | 4.80226 | 34383 ft | 308 kts | 234° |
| 2026-05-07 13:00 | 51.59575 | 4.77458 | 33833 ft | 307 kts | 234° |
| 2026-05-07 13:00 | 51.58300 | 4.74699 | 33238 ft | 307 kts | 234° |
| 2026-05-07 13:01 | 51.57025 | 4.71946 | 32630 ft | 307 kts | 234° |
| 2026-05-07 13:01 | 51.55748 | 4.69192 | 32058 ft | 306 kts | 233° |
| 2026-05-07 13:01 | 51.54464 | 4.66422 | 31301 ft | 312 kts | 233° |
| 2026-05-07 13:01 | 51.53148 | 4.63590 | 30459 ft | 319 kts | 233° |
| 2026-05-07 13:02 | 51.51824 | 4.60741 | 29592 ft | 325 kts | 233° |
| 2026-05-07 13:02 | 51.50463 | 4.57818 | 28679 ft | 329 kts | 233° |
| 2026-05-07 13:02 | 51.49085 | 4.54861 | 27781 ft | 332 kts | 233° |
| 2026-05-07 13:02 | 51.47704 | 4.51901 | 27001 ft | 331 kts | 233° |
| 2026-05-07 13:03 | 51.46322 | 4.48944 | 26294 ft | 329 kts | 233° |
| 2026-05-07 13:03 | 51.44953 | 4.46015 | 25602 ft | 327 kts | 233° |
| 2026-05-07 13:03 | 51.43598 | 4.43122 | 25047 ft | 321 kts | 233° |
| 2026-05-07 13:03 | 51.42282 | 4.40315 | 24516 ft | 317 kts | 233° |
| 2026-05-07 13:04 | 51.40890 | 4.37617 | 23992 ft | 313 kts | 225° |
| 2026-05-07 13:04 | 51.39139 | 4.35589 | 23433 ft | 310 kts | 210° |
| 2026-05-07 13:04 | 51.37225 | 4.34028 | 22830 ft | 307 kts | 207° |
| 2026-05-07 13:04 | 51.35293 | 4.32569 | 22057 ft | 309 kts | 206° |
| 2026-05-07 13:05 | 51.33315 | 4.31088 | 20994 ft | 319 kts | 206° |
| 2026-05-07 13:05 | 51.31270 | 4.29650 | 19965 ft | 327 kts | 201° |
| 2026-05-07 13:05 | 51.28968 | 4.28950 | 18748 ft | 348 kts | 182° |
| 2026-05-07 13:05 | 51.26537 | 4.29680 | 17452 ft | 365 kts | 159° |
| 2026-05-07 13:06 | 51.24399 | 4.31950 | 16142 ft | 377 kts | 136° |
| 2026-05-07 13:06 | 51.22853 | 4.35367 | 14893 ft | 384 kts | 120° |
| 2026-05-07 13:06 | 51.21608 | 4.39105 | 13670 ft | 387 kts | 117° |
| 2026-05-07 13:06 | 51.20309 | 4.42858 | 12353 ft | 386 kts | 125° |
| 2026-05-07 13:07 | 51.18411 | 4.45842 | 11089 ft | 382 kts | 147° |
| 2026-05-07 13:07 | 51.15992 | 4.47486 | 9853 ft | 377 kts | 168° |
| 2026-05-07 13:07 | 51.13400 | 4.47625 | 8527 ft | 370 kts | 186° |
| 2026-05-07 13:07 | 51.10866 | 4.47072 | 7258 ft | 366 kts | 189° |
| 2026-05-07 13:08 | 51.08360 | 4.46515 | 5991 ft | 362 kts | 187° |
| 2026-05-07 13:08 | 51.05873 | 4.46057 | 4720 ft | 358 kts | 186° |
| 2026-05-07 13:08 | 51.03425 | 4.45683 | 3756 ft | 347 kts | 185° |
| 2026-05-07 13:08 | 51.01087 | 4.45368 | 3024 ft | 333 kts | 184° |
| 2026-05-07 13:09 | 50.98876 | 4.45094 | 2904 ft | 304 kts | 184° |
| 2026-05-07 13:09 | 50.96860 | 4.44856 | 2817 ft | 279 kts | 184° |
| 2026-05-07 13:09 | 50.94985 | 4.44640 | 2727 ft | 259 kts | 184° |
| 2026-05-07 13:09 | 50.93239 | 4.44444 | 2631 ft | 245 kts | 184° |
| 2026-05-07 13:10 | 50.91582 | 4.44261 | 2535 ft | 232 kts | 183° |
| 2026-05-07 13:10 | 50.90028 | 4.44090 | 2412 ft | 214 kts | 183° |
| 2026-05-07 13:10 | 50.88597 | 4.43933 | 2302 ft | 198 kts | 183° |
| 2026-05-07 13:10 | 50.87295 | 4.43791 | 2206 ft | 180 kts | 184° |
| 2026-05-07 13:11 | 50.86089 | 4.43660 | 2120 ft | 170 kts | 183° |
| 2026-05-07 13:11 | 50.84915 | 4.43533 | 2016 ft | 168 kts | 183° |
| 2026-05-07 13:11 | 50.83745 | 4.43407 | 1912 ft | 168 kts | 183° |
| 2026-05-07 13:11 | 50.82585 | 4.43281 | 1797 ft | 167 kts | 183° |
| 2026-05-07 13:12 | 50.81423 | 4.43156 | 1677 ft | 168 kts | 183° |
| 2026-05-07 13:12 | 50.80252 | 4.43030 | 1547 ft | 168 kts | 183° |
| 2026-05-07 13:12 | 50.79093 | 4.42905 | 1423 ft | 168 kts | 182° |
| 2026-05-07 13:12 | 50.77931 | 4.42779 | 1297 ft | 167 kts | 183° |
| 2026-05-07 13:13 | 50.76773 | 4.42654 | 1164 ft | 166 kts | 183° |
| 2026-05-07 13:13 | 50.75620 | 4.42534 | 1079 ft | 165 kts | 182° |
| 2026-05-07 13:13 | 50.74475 | 4.42604 | 1072 ft | 164 kts | 169° |
| 2026-05-07 13:13 | 50.73391 | 4.43140 | 1074 ft | 164 kts | 153° |
| 2026-05-07 13:14 | 50.72464 | 4.44168 | 1072 ft | 163 kts | 135° |
| 2026-05-07 13:14 | 50.71785 | 4.45590 | 1072 ft | 162 kts | 117° |
| 2026-05-07 13:14 | 50.71418 | 4.47252 | 1068 ft | 159 kts | 99° |
| 2026-05-07 13:14 | 50.71382 | 4.48975 | 1065 ft | 157 kts | 83° |
| 2026-05-07 13:15 | 50.71657 | 4.50605 | 1071 ft | 156 kts | 66° |
| 2026-05-07 13:15 | 50.72222 | 4.52054 | 1073 ft | 155 kts | 50° |
| 2026-05-07 13:15 | 50.73024 | 4.53180 | 1073 ft | 155 kts | 34° |
| 2026-05-07 13:15 | 50.74007 | 4.53899 | 1074 ft | 156 kts | 17° |
| 2026-05-07 13:16 | 50.75077 | 4.54138 | 1075 ft | 157 kts | 1° |
| 2026-05-07 13:16 | 50.76154 | 4.53873 | 1071 ft | 158 kts | 343° |
| 2026-05-07 13:16 | 50.77141 | 4.53116 | 1067 ft | 159 kts | 327° |
| 2026-05-07 13:16 | 50.77938 | 4.51943 | 1074 ft | 160 kts | 309° |
| 2026-05-07 13:17 | 50.78505 | 4.50438 | 1079 ft | 160 kts | 296° |
| 2026-05-07 13:17 | 50.78943 | 4.48809 | 1078 ft | 161 kts | 292° |
| 2026-05-07 13:17 | 50.79395 | 4.47205 | 1068 ft | 160 kts | 303° |
| 2026-05-07 13:17 | 50.80299 | 4.46352 | 1079 ft | 155 kts | 352° |
| 2026-05-07 13:18 | 50.81377 | 4.46265 | 1072 ft | 155 kts | 4° |
| 2026-05-07 13:18 | 50.82439 | 4.46604 | 1069 ft | 156 kts | 14° |
| 2026-05-07 13:18 | 50.83485 | 4.47031 | 965 ft | 154 kts | 15° |
| 2026-05-07 13:18 | 50.84511 | 4.47451 | 802 ft | 154 kts | 15° |
| 2026-05-07 13:19 | 50.85555 | 4.47867 | 646 ft | 154 kts | 15° |
| 2026-05-07 13:19 | 50.86598 | 4.48283 | 504 ft | 155 kts | 15° |
| 2026-05-07 13:19 | 50.87635 | 4.48699 | 371 ft | 154 kts | 16° |
| 2026-05-07 13:19 | 50.88646 | 4.49118 | 222 ft | 143 kts | 16° |
| 2026-05-07 13:20 | 50.89474 | 4.49464 | 150 ft | 95 kts | 14° |
| 2026-05-07 13:20 | 50.89977 | 4.49665 | 144 ft | 58 kts | 15° |
| 2026-05-07 13:20 | 50.90283 | 4.49793 | 145 ft | 35 kts | 15° |
| 2026-05-07 13:20 | 50.90494 | 4.49878 | 146 ft | 32 kts | 14° |
| 2026-05-07 13:21 | 50.90713 | 4.49967 | 142 ft | 34 kts | 13° |
| 2026-05-07 13:21 | 50.90926 | 4.50053 | 134 ft | 29 kts | 14° |
| 2026-05-07 13:21 | 50.91109 | 4.50129 | 127 ft | 24 kts | 15° |
| 2026-05-07 13:21 | 50.91255 | 4.50086 | 132 ft | 21 kts | 335° |
| 2026-05-07 13:22 | 50.91374 | 4.49996 | 135 ft | 18 kts | 332° |
| 2026-05-07 13:22 | 50.91465 | 4.49872 | 134 ft | 16 kts | 280° |
| 2026-05-07 13:22 | 50.91479 | 4.49764 | 128 ft | 9 kts | 324° |
| 2026-05-07 13:22 | 50.91486 | 4.49756 | 129 ft | 0 kts | 327° |